sensor_id;sensor_type;location;lat;lon;timestamp;pressure;altitude;pressure_sealevel;temperature;humidity
25944;BME280;13742;49.306;8.636;2023-09-30T00:00:16;101302.58;;;18.21;77.16
25944;BME280;13742;49.306;8.636;2023-09-30T00:01:17;101303.96;;;18.18;77.22
25944;BME280;13742;49.306;8.636;2023-09-30T00:02:16;101304.27;;;18.14;77.18
25944;BME280;13742;49.306;8.636;2023-09-30T00:03:16;101306.41;;;18.17;77.37
25944;BME280;13742;49.306;8.636;2023-09-30T00:04:16;101306.47;;;18.19;77.27
25944;BME280;13742;49.306;8.636;2023-09-30T00:05:19;101304.62;;;18.17;77.31
25944;BME280;13742;49.306;8.636;2023-09-30T00:06:16;101302.23;;;18.19;76.95
25944;BME280;13742;49.306;8.636;2023-09-30T00:07:16;101305.83;;;18.21;76.93
25944;BME280;13742;49.306;8.636;2023-09-30T00:08:16;101302.98;;;18.22;76.62
25944;BME280;13742;49.306;8.636;2023-09-30T00:09:16;101305.11;;;18.26;76.86
25944;BME280;13742;49.306;8.636;2023-09-30T00:10:16;101305.36;;;18.28;76.64
25944;BME280;13742;49.306;8.636;2023-09-30T00:11:19;101301.00;;;18.28;76.56
25944;BME280;13742;49.306;8.636;2023-09-30T00:12:16;101306.70;;;18.31;76.65
25944;BME280;13742;49.306;8.636;2023-09-30T00:13:16;101304.92;;;18.31;76.60
25944;BME280;13742;49.306;8.636;2023-09-30T00:14:17;101306.34;;;18.33;76.57
25944;BME280;13742;49.306;8.636;2023-09-30T00:15:16;101307.02;;;18.34;76.38
25944;BME280;13742;49.306;8.636;2023-09-30T00:16:17;101311.42;;;18.35;76.45
25944;BME280;13742;49.306;8.636;2023-09-30T00:17:16;101315.34;;;18.36;76.34
25944;BME280;13742;49.306;8.636;2023-09-30T00:18:16;101316.74;;;18.37;76.01
25944;BME280;13742;49.306;8.636;2023-09-30T00:19:16;101318.25;;;18.39;76.10
25944;BME280;13742;49.306;8.636;2023-09-30T00:20:16;101324.21;;;18.39;75.94
25944;BME280;13742;49.306;8.636;2023-09-30T00:21:16;101323.05;;;18.39;75.80
25944;BME280;13742;49.306;8.636;2023-09-30T00:22:16;101323.90;;;18.41;75.95
25944;BME280;13742;49.306;8.636;2023-09-30T00:23:16;101322.41;;;18.42;75.85
25944;BME280;13742;49.306;8.636;2023-09-30T00:24:16;101324.63;;;18.43;75.76
25944;BME280;13742;49.306;8.636;2023-09-30T00:25:16;101328.94;;;18.45;75.82
25944;BME280;13742;49.306;8.636;2023-09-30T00:26:16;101328.22;;;18.46;75.84
25944;BME280;13742;49.306;8.636;2023-09-30T00:27:16;101326.51;;;18.46;75.80
25944;BME280;13742;49.306;8.636;2023-09-30T00:28:16;101328.34;;;18.48;75.98
25944;BME280;13742;49.306;8.636;2023-09-30T00:29:16;101328.41;;;18.49;76.26
25944;BME280;13742;49.306;8.636;2023-09-30T00:30:16;101327.76;;;18.49;76.19
25944;BME280;13742;49.306;8.636;2023-09-30T00:31:16;101329.81;;;18.48;76.00
25944;BME280;13742;49.306;8.636;2023-09-30T00:32:16;101331.60;;;18.49;76.05
25944;BME280;13742;49.306;8.636;2023-09-30T00:33:16;101334.84;;;18.49;75.72
25944;BME280;13742;49.306;8.636;2023-09-30T00:34:16;101336.34;;;18.49;75.76
25944;BME280;13742;49.306;8.636;2023-09-30T00:35:16;101338.73;;;18.49;75.72
25944;BME280;13742;49.306;8.636;2023-09-30T00:36:16;101339.86;;;18.49;75.75
25944;BME280;13742;49.306;8.636;2023-09-30T00:37:16;101342.59;;;18.50;75.71
25944;BME280;13742;49.306;8.636;2023-09-30T00:38:16;101340.30;;;18.49;75.68
25944;BME280;13742;49.306;8.636;2023-09-30T00:39:16;101337.73;;;18.49;75.71
25944;BME280;13742;49.306;8.636;2023-09-30T00:40:16;101342.03;;;18.49;75.71
25944;BME280;13742;49.306;8.636;2023-09-30T00:41:16;101339.84;;;18.50;75.67
25944;BME280;13742;49.306;8.636;2023-09-30T00:42:16;101340.19;;;18.49;75.62
25944;BME280;13742;49.306;8.636;2023-09-30T00:43:19;101340.52;;;18.50;75.60
25944;BME280;13742;49.306;8.636;2023-09-30T00:44:16;101343.38;;;18.50;75.89
25944;BME280;13742;49.306;8.636;2023-09-30T00:45:16;101344.10;;;18.50;76.56
25944;BME280;13742;49.306;8.636;2023-09-30T00:47:16;101349.72;;;18.50;76.28
25944;BME280;13742;49.306;8.636;2023-09-30T00:48:16;101349.23;;;18.49;76.42
25944;BME280;13742;49.306;8.636;2023-09-30T00:49:18;101347.14;;;18.47;76.23
25944;BME280;13742;49.306;8.636;2023-09-30T00:50:16;101353.05;;;18.47;76.20
25944;BME280;13742;49.306;8.636;2023-09-30T00:51:16;101351.16;;;18.46;76.32
25944;BME280;13742;49.306;8.636;2023-09-30T00:52:16;101355.65;;;18.44;76.42
25944;BME280;13742;49.306;8.636;2023-09-30T00:53:16;101357.03;;;18.44;76.03
25944;BME280;13742;49.306;8.636;2023-09-30T00:54:16;101354.54;;;18.44;76.28
25944;BME280;13742;49.306;8.636;2023-09-30T00:55:16;101354.63;;;18.44;76.33
25944;BME280;13742;49.306;8.636;2023-09-30T00:56:16;101348.92;;;18.41;76.18
25944;BME280;13742;49.306;8.636;2023-09-30T00:57:16;101344.64;;;18.35;76.83
25944;BME280;13742;49.306;8.636;2023-09-30T00:58:16;101344.59;;;18.36;76.72
25944;BME280;13742;49.306;8.636;2023-09-30T00:59:16;101338.81;;;18.37;76.66
25944;BME280;13742;49.306;8.636;2023-09-30T01:00:16;101341.33;;;18.37;76.81
25944;BME280;13742;49.306;8.636;2023-09-30T01:01:16;101336.63;;;18.37;76.84
25944;BME280;13742;49.306;8.636;2023-09-30T01:02:17;101340.04;;;18.38;76.46
25944;BME280;13742;49.306;8.636;2023-09-30T01:03:16;101340.04;;;18.38;76.71
25944;BME280;13742;49.306;8.636;2023-09-30T01:04:16;101344.34;;;18.37;76.89
25944;BME280;13742;49.306;8.636;2023-09-30T01:05:16;101348.63;;;18.38;76.93
25944;BME280;13742;49.306;8.636;2023-09-30T01:06:16;101348.77;;;18.35;76.88
25944;BME280;13742;49.306;8.636;2023-09-30T01:07:16;101347.39;;;18.35;76.81
25944;BME280;13742;49.306;8.636;2023-09-30T01:08:16;101348.11;;;18.36;76.87
25944;BME280;13742;49.306;8.636;2023-09-30T01:09:16;101342.76;;;18.36;76.92
25944;BME280;13742;49.306;8.636;2023-09-30T01:10:16;101342.31;;;18.37;76.94
25944;BME280;13742;49.306;8.636;2023-09-30T01:11:16;101341.53;;;18.35;76.63
25944;BME280;13742;49.306;8.636;2023-09-30T01:12:16;101337.17;;;18.35;77.04
25944;BME280;13742;49.306;8.636;2023-09-30T01:13:16;101334.52;;;18.35;76.90
25944;BME280;13742;49.306;8.636;2023-09-30T01:15:16;101336.72;;;18.34;77.13
25944;BME280;13742;49.306;8.636;2023-09-30T01:16:16;101333.72;;;18.33;76.88
25944;BME280;13742;49.306;8.636;2023-09-30T01:17:16;101332.58;;;18.32;76.68
25944;BME280;13742;49.306;8.636;2023-09-30T01:18:17;101334.19;;;18.31;76.58
25944;BME280;13742;49.306;8.636;2023-09-30T01:19:16;101335.86;;;18.31;76.52
25944;BME280;13742;49.306;8.636;2023-09-30T01:20:16;101338.53;;;18.31;76.43
25944;BME280;13742;49.306;8.636;2023-09-30T01:21:16;101340.72;;;18.32;76.54
25944;BME280;13742;49.306;8.636;2023-09-30T01:22:16;101343.33;;;18.31;76.58
25944;BME280;13742;49.306;8.636;2023-09-30T01:23:17;101347.30;;;18.32;76.69
25944;BME280;13742;49.306;8.636;2023-09-30T01:24:16;101345.30;;;18.33;76.56
25944;BME280;13742;49.306;8.636;2023-09-30T01:25:16;101342.28;;;18.32;76.73
25944;BME280;13742;49.306;8.636;2023-09-30T01:26:16;101342.73;;;18.32;76.41
25944;BME280;13742;49.306;8.636;2023-09-30T01:27:18;101344.52;;;18.32;76.67
25944;BME280;13742;49.306;8.636;2023-09-30T01:28:16;101345.08;;;18.33;77.02
25944;BME280;13742;49.306;8.636;2023-09-30T01:29:17;101343.72;;;18.31;76.77
25944;BME280;13742;49.306;8.636;2023-09-30T01:30:16;101341.89;;;18.32;77.01
25944;BME280;13742;49.306;8.636;2023-09-30T01:31:16;101338.20;;;18.31;77.03
25944;BME280;13742;49.306;8.636;2023-09-30T01:32:16;101336.98;;;18.32;77.12
25944;BME280;13742;49.306;8.636;2023-09-30T01:33:18;101337.26;;;18.31;77.03
25944;BME280;13742;49.306;8.636;2023-09-30T01:34:16;101335.86;;;18.30;77.00
25944;BME280;13742;49.306;8.636;2023-09-30T01:35:16;101337.08;;;18.30;77.10
25944;BME280;13742;49.306;8.636;2023-09-30T01:36:17;101332.22;;;18.29;77.27
25944;BME280;13742;49.306;8.636;2023-09-30T01:37:16;101332.94;;;18.28;77.23
25944;BME280;13742;49.306;8.636;2023-09-30T01:38:16;101335.61;;;18.27;77.21
25944;BME280;13742;49.306;8.636;2023-09-30T01:39:16;101338.41;;;18.28;77.34
25944;BME280;13742;49.306;8.636;2023-09-30T01:40:18;101338.67;;;18.27;77.43
25944;BME280;13742;49.306;8.636;2023-09-30T01:41:16;101341.73;;;18.26;77.42
25944;BME280;13742;49.306;8.636;2023-09-30T01:42:16;101340.45;;;18.25;77.44
25944;BME280;13742;49.306;8.636;2023-09-30T01:43:16;101344.91;;;18.25;77.31
25944;BME280;13742;49.306;8.636;2023-09-30T01:44:16;101348.58;;;18.24;77.30
25944;BME280;13742;49.306;8.636;2023-09-30T01:45:16;101346.25;;;18.23;77.23
25944;BME280;13742;49.306;8.636;2023-09-30T01:46:16;101348.84;;;18.23;77.29
25944;BME280;13742;49.306;8.636;2023-09-30T01:47:16;101352.75;;;18.22;77.38
25944;BME280;13742;49.306;8.636;2023-09-30T01:48:16;101353.20;;;18.22;77.35
25944;BME280;13742;49.306;8.636;2023-09-30T01:49:18;101354.47;;;18.20;77.24
25944;BME280;13742;49.306;8.636;2023-09-30T01:50:17;101353.84;;;18.20;77.43
25944;BME280;13742;49.306;8.636;2023-09-30T01:51:16;101353.84;;;18.19;77.16
25944;BME280;13742;49.306;8.636;2023-09-30T01:52:16;101351.77;;;18.17;76.98
25944;BME280;13742;49.306;8.636;2023-09-30T01:53:16;101353.41;;;18.14;77.39
25944;BME280;13742;49.306;8.636;2023-09-30T01:54:16;101352.23;;;18.14;77.42
25944;BME280;13742;49.306;8.636;2023-09-30T01:55:16;101351.34;;;18.13;77.57
25944;BME280;13742;49.306;8.636;2023-09-30T01:56:16;101357.23;;;18.13;77.71
25944;BME280;13742;49.306;8.636;2023-09-30T01:57:16;101360.63;;;18.12;77.77
25944;BME280;13742;49.306;8.636;2023-09-30T01:58:16;101361.02;;;18.12;77.70
25944;BME280;13742;49.306;8.636;2023-09-30T01:59:16;101363.02;;;18.09;77.71
25944;BME280;13742;49.306;8.636;2023-09-30T02:00:17;101365.95;;;18.08;77.86
25944;BME280;13742;49.306;8.636;2023-09-30T02:01:16;101363.45;;;18.08;78.05
25944;BME280;13742;49.306;8.636;2023-09-30T02:02:16;101362.58;;;18.07;78.18
25944;BME280;13742;49.306;8.636;2023-09-30T02:03:17;101361.38;;;18.08;78.28
25944;BME280;13742;49.306;8.636;2023-09-30T02:04:17;101354.00;;;18.05;78.30
25944;BME280;13742;49.306;8.636;2023-09-30T02:05:16;101352.09;;;18.05;78.17
25944;BME280;13742;49.306;8.636;2023-09-30T02:06:16;101351.87;;;18.03;78.18
25944;BME280;13742;49.306;8.636;2023-09-30T02:07:16;101353.35;;;18.02;78.39
25944;BME280;13742;49.306;8.636;2023-09-30T02:08:18;101355.40;;;18.01;78.32
25944;BME280;13742;49.306;8.636;2023-09-30T02:09:16;101352.58;;;18.01;78.02
25944;BME280;13742;49.306;8.636;2023-09-30T02:10:16;101353.74;;;18.01;77.92
25944;BME280;13742;49.306;8.636;2023-09-30T02:11:17;101353.19;;;18.02;77.63
25944;BME280;13742;49.306;8.636;2023-09-30T02:12:16;101352.30;;;18.02;77.59
25944;BME280;13742;49.306;8.636;2023-09-30T02:13:16;101357.59;;;18.01;77.49
25944;BME280;13742;49.306;8.636;2023-09-30T02:14:16;101359.81;;;18.02;77.44
25944;BME280;13742;49.306;8.636;2023-09-30T02:15:16;101359.20;;;18.02;77.52
25944;BME280;13742;49.306;8.636;2023-09-30T02:16:16;101366.27;;;18.02;77.57
25944;BME280;13742;49.306;8.636;2023-09-30T02:17:16;101363.10;;;18.01;77.20
25944;BME280;13742;49.306;8.636;2023-09-30T02:18:16;101366.59;;;18.01;77.43
25944;BME280;13742;49.306;8.636;2023-09-30T02:19:16;101369.66;;;18.00;77.56
25944;BME280;13742;49.306;8.636;2023-09-30T02:20:19;101371.80;;;18.01;77.32
25944;BME280;13742;49.306;8.636;2023-09-30T02:21:16;101369.17;;;18.01;77.18
25944;BME280;13742;49.306;8.636;2023-09-30T02:22:16;101372.34;;;18.02;77.19
25944;BME280;13742;49.306;8.636;2023-09-30T02:23:17;101371.57;;;18.02;77.28
25944;BME280;13742;49.306;8.636;2023-09-30T02:24:16;101369.13;;;18.01;77.45
25944;BME280;13742;49.306;8.636;2023-09-30T02:25:16;101369.50;;;18.02;77.67
25944;BME280;13742;49.306;8.636;2023-09-30T02:26:16;101370.78;;;18.02;77.79
25944;BME280;13742;49.306;8.636;2023-09-30T02:27:16;101370.11;;;18.02;77.50
25944;BME280;13742;49.306;8.636;2023-09-30T02:28:16;101369.78;;;18.02;77.40
25944;BME280;13742;49.306;8.636;2023-09-30T02:29:16;101367.44;;;18.02;77.48
25944;BME280;13742;49.306;8.636;2023-09-30T02:30:16;101365.89;;;18.02;77.52
25944;BME280;13742;49.306;8.636;2023-09-30T02:31:17;101365.60;;;18.02;77.41
25944;BME280;13742;49.306;8.636;2023-09-30T02:32:16;101359.04;;;18.03;77.78
25944;BME280;13742;49.306;8.636;2023-09-30T02:33:16;101356.42;;;18.03;77.58
25944;BME280;13742;49.306;8.636;2023-09-30T02:34:16;101354.95;;;18.00;77.42
25944;BME280;13742;49.306;8.636;2023-09-30T02:35:16;101357.69;;;18.00;77.37
25944;BME280;13742;49.306;8.636;2023-09-30T02:36:16;101361.98;;;18.01;77.41
25944;BME280;13742;49.306;8.636;2023-09-30T02:37:17;101362.34;;;18.00;77.16
25944;BME280;13742;49.306;8.636;2023-09-30T02:38:16;101365.18;;;18.00;77.85
25944;BME280;13742;49.306;8.636;2023-09-30T02:39:16;101368.11;;;17.96;78.57
25944;BME280;13742;49.306;8.636;2023-09-30T02:40:17;101366.16;;;17.90;78.93
25944;BME280;13742;49.306;8.636;2023-09-30T02:41:16;101363.80;;;17.90;78.80
25944;BME280;13742;49.306;8.636;2023-09-30T02:42:16;101362.70;;;17.90;78.63
25944;BME280;13742;49.306;8.636;2023-09-30T02:43:16;101363.48;;;17.90;78.82
25944;BME280;13742;49.306;8.636;2023-09-30T02:44:16;101366.48;;;17.90;78.83
25944;BME280;13742;49.306;8.636;2023-09-30T02:45:17;101363.94;;;17.87;79.22
25944;BME280;13742;49.306;8.636;2023-09-30T02:46:16;101362.66;;;17.75;79.67
25944;BME280;13742;49.306;8.636;2023-09-30T02:47:16;101363.24;;;17.73;80.00
25944;BME280;13742;49.306;8.636;2023-09-30T02:48:16;101367.23;;;17.76;79.56
25944;BME280;13742;49.306;8.636;2023-09-30T02:49:16;101374.27;;;17.76;79.19
25944;BME280;13742;49.306;8.636;2023-09-30T02:50:16;101375.86;;;17.76;79.06
25944;BME280;13742;49.306;8.636;2023-09-30T02:51:16;101381.99;;;17.76;78.75
25944;BME280;13742;49.306;8.636;2023-09-30T02:52:16;101385.00;;;17.76;79.22
25944;BME280;13742;49.306;8.636;2023-09-30T02:53:16;101387.98;;;17.75;79.63
25944;BME280;13742;49.306;8.636;2023-09-30T02:54:16;101383.27;;;17.75;79.72
25944;BME280;13742;49.306;8.636;2023-09-30T02:55:16;101383.81;;;17.75;79.14
25944;BME280;13742;49.306;8.636;2023-09-30T02:56:16;101381.03;;;17.75;79.00
25944;BME280;13742;49.306;8.636;2023-09-30T02:57:16;101379.52;;;17.74;78.76
25944;BME280;13742;49.306;8.636;2023-09-30T02:58:16;101378.25;;;17.75;78.81
25944;BME280;13742;49.306;8.636;2023-09-30T02:59:17;101382.31;;;17.75;78.65
25944;BME280;13742;49.306;8.636;2023-09-30T03:00:21;101384.26;;;17.75;78.71
25944;BME280;13742;49.306;8.636;2023-09-30T03:01:20;101386.20;;;17.74;79.12
25944;BME280;13742;49.306;8.636;2023-09-30T03:02:16;101389.13;;;17.73;78.78
25944;BME280;13742;49.306;8.636;2023-09-30T03:03:16;101388.53;;;17.73;78.87
25944;BME280;13742;49.306;8.636;2023-09-30T03:04:19;101387.13;;;17.72;78.60
25944;BME280;13742;49.306;8.636;2023-09-30T03:05:16;101388.81;;;17.73;78.64
25944;BME280;13742;49.306;8.636;2023-09-30T03:06:18;101384.11;;;17.72;78.72
25944;BME280;13742;49.306;8.636;2023-09-30T03:07:17;101387.50;;;17.71;78.76
25944;BME280;13742;49.306;8.636;2023-09-30T03:08:16;101388.89;;;17.71;78.63
25944;BME280;13742;49.306;8.636;2023-09-30T03:09:16;101394.84;;;17.70;78.64
25944;BME280;13742;49.306;8.636;2023-09-30T03:10:20;101402.86;;;17.70;78.79
25944;BME280;13742;49.306;8.636;2023-09-30T03:11:16;101404.76;;;17.70;78.84
25944;BME280;13742;49.306;8.636;2023-09-30T03:12:16;101410.83;;;17.70;78.93
25944;BME280;13742;49.306;8.636;2023-09-30T03:13:18;101415.15;;;17.68;78.84
25944;BME280;13742;49.306;8.636;2023-09-30T03:14:16;101411.47;;;17.68;78.91
25944;BME280;13742;49.306;8.636;2023-09-30T03:15:16;101409.08;;;17.63;79.24
25944;BME280;13742;49.306;8.636;2023-09-30T03:16:16;101408.69;;;17.63;78.88
25944;BME280;13742;49.306;8.636;2023-09-30T03:17:16;101405.36;;;17.64;79.30
25944;BME280;13742;49.306;8.636;2023-09-30T03:18:17;101400.18;;;17.64;79.16
25944;BME280;13742;49.306;8.636;2023-09-30T03:19:16;101398.12;;;17.64;78.96
25944;BME280;13742;49.306;8.636;2023-09-30T03:20:19;101395.39;;;17.64;78.98
25944;BME280;13742;49.306;8.636;2023-09-30T03:21:16;101394.45;;;17.65;79.10
25944;BME280;13742;49.306;8.636;2023-09-30T03:22:16;101391.57;;;17.66;79.72
25944;BME280;13742;49.306;8.636;2023-09-30T03:23:16;101387.33;;;17.66;79.60
25944;BME280;13742;49.306;8.636;2023-09-30T03:24:16;101380.67;;;17.67;79.94
25944;BME280;13742;49.306;8.636;2023-09-30T03:25:18;101378.70;;;17.66;79.89
25944;BME280;13742;49.306;8.636;2023-09-30T03:26:16;101378.29;;;17.65;80.38
25944;BME280;13742;49.306;8.636;2023-09-30T03:27:16;101379.67;;;17.63;80.76
25944;BME280;13742;49.306;8.636;2023-09-30T03:28:16;101375.65;;;17.63;80.27
25944;BME280;13742;49.306;8.636;2023-09-30T03:29:16;101375.48;;;17.61;80.62
25944;BME280;13742;49.306;8.636;2023-09-30T03:30:16;101374.91;;;17.60;80.69
25944;BME280;13742;49.306;8.636;2023-09-30T03:31:19;101375.88;;;17.59;80.70
25944;BME280;13742;49.306;8.636;2023-09-30T03:32:16;101371.30;;;17.56;80.97
25944;BME280;13742;49.306;8.636;2023-09-30T03:33:17;101372.55;;;17.55;81.15
25944;BME280;13742;49.306;8.636;2023-09-30T03:34:16;101369.70;;;17.54;81.25
25944;BME280;13742;49.306;8.636;2023-09-30T03:35:17;101368.87;;;17.54;80.98
25944;BME280;13742;49.306;8.636;2023-09-30T03:36:17;101367.99;;;17.54;80.60
25944;BME280;13742;49.306;8.636;2023-09-30T03:37:16;101366.58;;;17.53;80.57
25944;BME280;13742;49.306;8.636;2023-09-30T03:38:18;101369.98;;;17.54;80.48
25944;BME280;13742;49.306;8.636;2023-09-30T03:39:17;101370.70;;;17.54;80.75
25944;BME280;13742;49.306;8.636;2023-09-30T03:40:19;101371.17;;;17.51;80.42
25944;BME280;13742;49.306;8.636;2023-09-30T03:41:16;101375.95;;;17.50;80.41
25944;BME280;13742;49.306;8.636;2023-09-30T03:42:16;101379.69;;;17.49;80.12
25944;BME280;13742;49.306;8.636;2023-09-30T03:43:16;101381.70;;;17.51;81.19
25944;BME280;13742;49.306;8.636;2023-09-30T03:44:16;101384.85;;;17.50;80.59
25944;BME280;13742;49.306;8.636;2023-09-30T03:45:16;101389.42;;;17.50;80.73
25944;BME280;13742;49.306;8.636;2023-09-30T03:46:16;101389.85;;;17.49;80.72
25944;BME280;13742;49.306;8.636;2023-09-30T03:47:16;101391.00;;;17.47;80.69
25944;BME280;13742;49.306;8.636;2023-09-30T03:48:18;101390.38;;;17.46;80.88
25944;BME280;13742;49.306;8.636;2023-09-30T03:49:16;101393.76;;;17.45;80.11
25944;BME280;13742;49.306;8.636;2023-09-30T03:50:16;101395.93;;;17.45;80.46
25944;BME280;13742;49.306;8.636;2023-09-30T03:51:16;101398.88;;;17.45;80.49
25944;BME280;13742;49.306;8.636;2023-09-30T03:52:16;101400.34;;;17.46;81.00
25944;BME280;13742;49.306;8.636;2023-09-30T03:53:16;101401.80;;;17.45;81.05
25944;BME280;13742;49.306;8.636;2023-09-30T03:54:16;101402.11;;;17.45;81.39
25944;BME280;13742;49.306;8.636;2023-09-30T03:55:17;101403.10;;;17.44;81.26
25944;BME280;13742;49.306;8.636;2023-09-30T03:56:16;101403.55;;;17.40;81.78
25944;BME280;13742;49.306;8.636;2023-09-30T03:57:16;101408.25;;;17.38;81.93
25944;BME280;13742;49.306;8.636;2023-09-30T03:58:18;101407.35;;;17.37;81.32
25944;BME280;13742;49.306;8.636;2023-09-30T03:59:16;101411.95;;;17.31;82.13
25944;BME280;13742;49.306;8.636;2023-09-30T04:00:16;101413.88;;;17.25;82.14
25944;BME280;13742;49.306;8.636;2023-09-30T04:01:19;101416.03;;;17.24;82.04
25944;BME280;13742;49.306;8.636;2023-09-30T04:02:16;101416.50;;;17.17;82.56
25944;BME280;13742;49.306;8.636;2023-09-30T04:03:16;101413.46;;;17.14;82.68
25944;BME280;13742;49.306;8.636;2023-09-30T04:04:16;101412.03;;;17.15;82.03
25944;BME280;13742;49.306;8.636;2023-09-30T04:05:17;101409.02;;;17.15;81.59
25944;BME280;13742;49.306;8.636;2023-09-30T04:06:16;101409.27;;;17.17;81.69
25944;BME280;13742;49.306;8.636;2023-09-30T04:07:16;101407.89;;;17.18;81.74
25944;BME280;13742;49.306;8.636;2023-09-30T04:08:17;101406.45;;;17.19;81.70
25944;BME280;13742;49.306;8.636;2023-09-30T04:09:16;101407.70;;;17.20;81.68
25944;BME280;13742;49.306;8.636;2023-09-30T04:10:16;101404.74;;;17.20;81.68
25944;BME280;13742;49.306;8.636;2023-09-30T04:11:20;101407.09;;;17.21;81.60
25944;BME280;13742;49.306;8.636;2023-09-30T04:12:16;101408.05;;;17.21;81.35
25944;BME280;13742;49.306;8.636;2023-09-30T04:13:16;101410.20;;;17.20;82.16
25944;BME280;13742;49.306;8.636;2023-09-30T04:14:17;101413.70;;;17.20;82.25
25944;BME280;13742;49.306;8.636;2023-09-30T04:15:16;101417.20;;;17.19;82.66
25944;BME280;13742;49.306;8.636;2023-09-30T04:16:18;101417.89;;;17.17;82.23
25944;BME280;13742;49.306;8.636;2023-09-30T04:17:16;101418.33;;;17.16;81.95
25944;BME280;13742;49.306;8.636;2023-09-30T04:18:16;101421.60;;;17.16;82.21
25944;BME280;13742;49.306;8.636;2023-09-30T04:19:16;101421.55;;;17.16;82.24
25944;BME280;13742;49.306;8.636;2023-09-30T04:20:16;101424.22;;;17.16;81.93
25944;BME280;13742;49.306;8.636;2023-09-30T04:21:16;101424.55;;;17.15;81.86
25944;BME280;13742;49.306;8.636;2023-09-30T04:22:17;101423.63;;;17.13;81.69
25944;BME280;13742;49.306;8.636;2023-09-30T04:23:16;101423.55;;;17.12;81.64
25944;BME280;13742;49.306;8.636;2023-09-30T04:24:16;101427.27;;;17.11;81.49
25944;BME280;13742;49.306;8.636;2023-09-30T04:25:19;101425.55;;;17.11;81.71
25944;BME280;13742;49.306;8.636;2023-09-30T04:26:16;101421.30;;;17.10;81.51
25944;BME280;13742;49.306;8.636;2023-09-30T04:27:16;101424.86;;;17.10;81.50
25944;BME280;13742;49.306;8.636;2023-09-30T04:28:20;101425.69;;;17.09;81.49
25944;BME280;13742;49.306;8.636;2023-09-30T04:29:16;101426.98;;;17.07;82.46
25944;BME280;13742;49.306;8.636;2023-09-30T04:30:16;101427.25;;;17.06;82.09
25944;BME280;13742;49.306;8.636;2023-09-30T04:31:16;101428.08;;;17.05;82.87
25944;BME280;13742;49.306;8.636;2023-09-30T04:32:16;101432.30;;;17.06;82.79
25944;BME280;13742;49.306;8.636;2023-09-30T04:33:17;101433.95;;;17.04;82.88
25944;BME280;13742;49.306;8.636;2023-09-30T04:34:16;101435.39;;;17.03;82.95
25944;BME280;13742;49.306;8.636;2023-09-30T04:35:16;101439.59;;;17.03;83.06
25944;BME280;13742;49.306;8.636;2023-09-30T04:36:16;101438.41;;;17.01;82.44
25944;BME280;13742;49.306;8.636;2023-09-30T04:37:16;101441.73;;;17.01;82.37
25944;BME280;13742;49.306;8.636;2023-09-30T04:38:16;101444.50;;;17.00;82.21
25944;BME280;13742;49.306;8.636;2023-09-30T04:39:16;101444.01;;;16.99;82.12
25944;BME280;13742;49.306;8.636;2023-09-30T04:40:19;101444.55;;;16.98;82.13
25944;BME280;13742;49.306;8.636;2023-09-30T04:41:16;101440.03;;;16.98;82.04
25944;BME280;13742;49.306;8.636;2023-09-30T04:42:17;101440.44;;;16.98;82.04
25944;BME280;13742;49.306;8.636;2023-09-30T04:43:17;101435.98;;;16.99;82.49
25944;BME280;13742;49.306;8.636;2023-09-30T04:44:16;101433.24;;;16.98;82.53
25944;BME280;13742;49.306;8.636;2023-09-30T04:45:20;101431.23;;;16.98;82.58
25944;BME280;13742;49.306;8.636;2023-09-30T04:46:20;101430.39;;;16.96;82.46
25944;BME280;13742;49.306;8.636;2023-09-30T04:47:16;101426.74;;;16.95;82.28
25944;BME280;13742;49.306;8.636;2023-09-30T04:48:16;101429.40;;;16.94;82.17
25944;BME280;13742;49.306;8.636;2023-09-30T04:49:17;101425.22;;;16.93;82.23
25944;BME280;13742;49.306;8.636;2023-09-30T04:50:16;101427.27;;;16.92;82.39
25944;BME280;13742;49.306;8.636;2023-09-30T04:51:18;101425.06;;;16.90;82.83
25944;BME280;13742;49.306;8.636;2023-09-30T04:52:16;101425.56;;;16.89;82.41
25944;BME280;13742;49.306;8.636;2023-09-30T04:53:17;101425.60;;;16.89;82.72
25944;BME280;13742;49.306;8.636;2023-09-30T04:54:16;101422.61;;;16.86;82.36
25944;BME280;13742;49.306;8.636;2023-09-30T04:55:16;101420.27;;;16.86;82.75
25944;BME280;13742;49.306;8.636;2023-09-30T04:56:16;101416.36;;;16.85;82.78
25944;BME280;13742;49.306;8.636;2023-09-30T04:57:16;101420.98;;;16.79;83.19
25944;BME280;13742;49.306;8.636;2023-09-30T04:58:16;101424.53;;;16.71;83.61
25944;BME280;13742;49.306;8.636;2023-09-30T04:59:16;101427.44;;;16.67;84.11
25944;BME280;13742;49.306;8.636;2023-09-30T05:00:18;101431.05;;;16.68;84.14
25944;BME280;13742;49.306;8.636;2023-09-30T05:01:18;101431.73;;;16.62;84.33
25944;BME280;13742;49.306;8.636;2023-09-30T05:02:16;101435.62;;;16.55;84.65
25944;BME280;13742;49.306;8.636;2023-09-30T05:03:16;101438.16;;;16.55;85.01
25944;BME280;13742;49.306;8.636;2023-09-30T05:04:16;101434.92;;;16.57;84.74
25944;BME280;13742;49.306;8.636;2023-09-30T05:05:16;101436.50;;;16.58;84.51
25944;BME280;13742;49.306;8.636;2023-09-30T05:06:16;101435.74;;;16.59;84.24
25944;BME280;13742;49.306;8.636;2023-09-30T05:07:16;101433.70;;;16.57;84.18
25944;BME280;13742;49.306;8.636;2023-09-30T05:08:16;101436.46;;;16.57;83.91
25944;BME280;13742;49.306;8.636;2023-09-30T05:09:16;101438.02;;;16.56;83.78
25944;BME280;13742;49.306;8.636;2023-09-30T05:10:17;101438.52;;;16.56;83.64
25944;BME280;13742;49.306;8.636;2023-09-30T05:11:16;101438.91;;;16.56;83.36
25944;BME280;13742;49.306;8.636;2023-09-30T05:12:16;101438.58;;;16.56;83.43
25944;BME280;13742;49.306;8.636;2023-09-30T05:13:16;101435.82;;;16.55;82.96
25944;BME280;13742;49.306;8.636;2023-09-30T05:14:16;101431.58;;;16.54;82.91
25944;BME280;13742;49.306;8.636;2023-09-30T05:15:16;101426.16;;;16.51;82.81